createdAt,value
2022-08-05T00:02:07.717Z,99671.88
2022-08-05T00:04:42.460Z,99685.91
2022-08-05T00:07:27.353Z,99672.56
2022-08-05T00:10:06.977Z,99673.03
2022-08-05T00:12:48.460Z,99674.34
2022-08-05T00:15:55.496Z,99674.00
2022-08-05T00:18:22.527Z,99676.94
2022-08-05T00:20:54.025Z,99675.78
2022-08-05T00:23:44.837Z,99672.75
2022-08-05T00:26:21.071Z,99663.41
2022-08-05T00:28:53.433Z,99667.47
2022-08-05T00:31:54.008Z,99665.81
2022-08-05T00:34:56.663Z,99652.97
2022-08-05T00:37:13.845Z,99661.28
2022-08-05T00:39:57.930Z,99669.34
2022-08-05T00:42:41.612Z,99674.72
2022-08-05T00:45:13.448Z,99673.31
2022-08-05T00:48:05.742Z,99686.38
2022-08-05T00:51:08.978Z,99674.56
2022-08-05T00:54:48.488Z,99677.44
2022-08-05T00:57:55.703Z,99675.44
2022-08-05T01:00:27.635Z,99684.59
2022-08-05T01:03:02.010Z,99682.69
2022-08-05T01:10:16.989Z,99662.47
2022-08-05T01:13:12.838Z,99677.78
2022-08-05T01:15:52.490Z,99670.66
2022-08-05T01:18:36.310Z,99667.59
2022-08-05T01:21:13.822Z,99669.91
2022-08-05T01:24:14.342Z,99674.25
2022-08-05T01:26:50.849Z,99677.16
2022-08-05T01:29:49.972Z,99676.88
2022-08-05T01:32:27.682Z,99672.75
2022-08-05T01:35:10.808Z,99673.47
2022-08-05T01:37:54.623Z,99668.97
2022-08-05T01:40:30.869Z,99670.50
2022-08-05T01:43:05.281Z,99663.88
2022-08-05T01:45:43.076Z,99656.72
2022-08-05T01:48:15.312Z,99662.06
2022-08-05T01:50:51.048Z,99655.44
2022-08-05T01:53:55.035Z,99656.44
2022-08-05T01:58:10.211Z,99648.19
2022-08-05T01:59:13.357Z,99642.63
2022-08-05T02:01:49.128Z,99640.13
2022-08-05T02:04:22.173Z,99644.13
2022-08-05T02:06:54.579Z,99641.63
2022-08-05T02:09:26.880Z,99638.00
2022-08-05T02:12:01.619Z,99643.13
2022-08-05T02:14:55.526Z,99642.34
2022-08-05T02:18:31.562Z,99637.88
2022-08-05T02:21:15.372Z,99630.75
2022-08-05T02:23:53.346Z,99630.94
2022-08-05T02:26:27.542Z,99628.91
2022-08-05T02:28:59.407Z,99629.94
2022-08-05T02:31:34.547Z,99623.25
2022-08-05T02:34:15.006Z,99620.41
2022-08-05T02:36:58.213Z,99621.09
2022-08-05T02:39:36.152Z,99619.09
2022-08-05T02:42:25.717Z,99614.44
2022-08-05T02:44:59.414Z,99602.75
2022-08-05T02:48:06.811Z,99613.53
2022-08-05T02:50:29.931Z,99604.72
2022-08-05T02:53:01.692Z,99601.69
2022-08-05T02:55:53.744Z,99607.31
2022-08-05T02:58:27.278Z,99601.75
2022-08-05T03:01:01.828Z,99606.13
2022-08-05T03:04:02.568Z,99602.78
2022-08-05T03:06:54.424Z,99600.16
2022-08-05T03:09:18.001Z,99584.13
2022-08-05T03:12:08.116Z,99592.41
2022-08-05T03:14:45.647Z,99589.38
2022-08-05T03:17:16.788Z,99593.56
2022-08-05T03:19:46.679Z,99582.06
2022-08-05T03:22:32.547Z,99574.38
2022-08-05T03:25:11.668Z,99578.38
2022-08-05T03:28:00.966Z,99569.59
2022-08-05T03:30:35.421Z,99568.34
2022-08-05T03:33:08.748Z,99562.91
2022-08-05T03:35:41.241Z,99565.50
2022-08-05T03:38:15.955Z,99564.25
2022-08-05T03:40:48.764Z,99544.84
2022-08-05T03:44:09.829Z,99549.69
2022-08-05T03:46:10.843Z,99538.59
2022-08-05T03:48:45.307Z,99540.84
2022-08-05T03:52:37.042Z,99543.75
2022-08-05T03:55:53.224Z,99529.50
2022-08-05T03:57:44.346Z,99525.38
2022-08-05T04:00:19.811Z,99524.44
2022-08-05T04:02:58.925Z,99522.22
2022-08-05T04:12:24.734Z,99515.84
2022-08-05T04:18:00.128Z,99508.97
2022-08-05T04:22:05.857Z,99495.97
2022-08-05T04:24:28.240Z,99491.16
2022-08-05T04:27:41.836Z,99488.91
2022-08-05T04:30:36.818Z,99490.22
2022-08-05T04:34:18.181Z,99483.00
2022-08-05T04:36:46.191Z,99481.53
2022-08-05T04:39:52.754Z,99473.53
2022-08-05T04:45:48.981Z,99455.88
2022-08-05T04:49:24.807Z,99453.03
2022-08-05T04:52:05.690Z,99444.69
2022-08-05T04:54:49.439Z,99436.34
2022-08-05T05:00:58.928Z,99427.31
2022-08-05T05:03:41.888Z,99422.38
2022-08-05T05:06:39.919Z,99424.44
2022-08-05T05:09:30.439Z,99416.09
2022-08-05T05:12:45.593Z,99408.50
2022-08-05T05:15:56.568Z,99404.81
2022-08-05T05:18:33.363Z,99402.72
2022-08-05T05:21:11.628Z,99408.34
2022-08-05T05:24:03.919Z,99399.50
2022-08-05T05:26:38.527Z,99390.69
2022-08-05T05:29:21.911Z,99394.69
2022-08-05T05:32:12.535Z,99384.72
2022-08-05T05:35:00.275Z,99371.53
2022-08-05T05:37:45.503Z,99371.22
2022-08-05T05:40:28.226Z,99367.81
2022-08-05T05:47:04.355Z,99369.72
2022-08-05T05:49:57.008Z,99369.53
2022-08-05T05:56:00.908Z,99370.63
2022-08-05T05:59:07.968Z,99365.28
2022-08-05T06:05:42.141Z,99371.41
2022-08-05T06:11:19.890Z,99363.94
2022-08-05T06:17:22.513Z,99352.19
2022-08-05T06:20:06.336Z,99357.31
2022-08-05T06:22:57.257Z,99351.66
2022-08-05T06:26:20.659Z,99355.34
2022-08-05T06:29:42.932Z,99347.59
2022-08-05T06:32:29.135Z,99347.59
2022-08-05T06:38:46.920Z,99341.75
2022-08-05T06:48:44.067Z,99343.13
2022-08-05T06:54:31.296Z,99330.53
2022-08-05T06:57:57.303Z,99323.59
2022-08-05T07:03:22.132Z,99319.19
2022-08-05T07:06:32.433Z,99317.09
2022-08-05T07:09:15.419Z,99318.00
2022-08-05T07:11:56.916Z,99316.19
2022-08-05T07:15:06.441Z,99310.06
2022-08-05T07:18:09.118Z,99318.38
2022-08-05T07:21:06.291Z,99312.13
2022-08-05T07:23:50.077Z,99313.03
2022-08-05T07:26:32.840Z,99324.09
2022-08-05T07:30:22.267Z,99313.28
2022-08-05T07:32:38.944Z,99315.34
2022-08-05T07:36:04.593Z,99318.09
2022-08-05T07:38:33.288Z,99319.34
2022-08-05T07:42:13.331Z,99319.00
2022-08-05T07:44:52.262Z,99311.28
2022-08-05T07:47:55.733Z,99316.06
2022-08-05T07:50:56.426Z,99315.84
2022-08-05T07:53:50.328Z,99311.53
2022-08-05T07:57:14.012Z,99310.97
2022-08-05T08:00:17.266Z,99317.25
2022-08-05T08:03:44.066Z,99297.78
2022-08-05T08:06:37.487Z,99303.69
2022-08-05T08:12:49.700Z,99303.47
2022-08-05T08:20:45.230Z,99299.03
2022-08-05T08:24:01.800Z,99291.28
2022-08-05T08:26:30.576Z,99290.13
2022-08-05T08:29:45.575Z,99299.59
2022-08-05T08:32:25.985Z,99300.06
2022-08-05T08:38:35.513Z,99290.94
2022-08-05T08:41:52.671Z,99287.19
2022-08-05T08:45:43.994Z,99285.81
2022-08-05T08:49:03.078Z,99279.66
2022-08-05T08:52:04.052Z,99282.19
2022-08-05T08:54:51.123Z,99283.91
2022-08-05T08:57:48.284Z,99291.06
2022-08-05T09:04:10.653Z,99297.00
2022-08-05T09:06:49.850Z,99297.91
2022-08-05T09:09:34.598Z,99289.47
2022-08-05T09:12:20.280Z,99299.03
2022-08-05T09:15:08.125Z,99294.34
2022-08-05T09:18:09.031Z,99301.78
2022-08-05T09:20:47.655Z,99296.97
2022-08-05T09:23:43.948Z,99294.56
2022-08-05T09:26:43.839Z,99293.34
2022-08-05T09:29:31.105Z,99286.94
2022-08-05T09:32:45.552Z,99293.22
2022-08-05T09:38:29.386Z,99301.22
2022-08-05T09:41:19.423Z,99299.06
2022-08-05T09:43:56.814Z,99297.22
2022-08-05T09:50:03.392Z,99303.50
2022-08-05T09:52:45.079Z,99297.44
2022-08-05T09:55:57.214Z,99303.50
2022-08-05T09:58:17.730Z,99297.91
2022-08-05T10:01:32.021Z,99296.88
2022-08-05T10:04:28.518Z,99306.91
2022-08-05T10:07:31.868Z,99305.88
2022-08-05T10:10:32.334Z,99318.97
2022-08-05T10:14:18.913Z,99316.81
2022-08-05T10:17:04.382Z,99323.94
2022-08-05T10:23:21.857Z,99327.41
2022-08-05T10:26:51.732Z,99323.78
2022-08-05T10:30:41.511Z,99328.78
2022-08-05T10:32:53.917Z,99332.84
2022-08-05T10:35:48.560Z,99331.47
2022-08-05T10:38:46.106Z,99343.41
2022-08-05T10:41:47.481Z,99343.50
2022-08-05T10:44:41.963Z,99351.88
2022-08-05T10:47:34.927Z,99350.81
2022-08-05T10:50:20.459Z,99341.56
2022-08-05T10:53:06.149Z,99350.28
2022-08-05T10:56:38.417Z,99347.59
2022-08-05T11:00:02.964Z,99350.06
2022-08-05T11:08:57.553Z,99366.44
2022-08-05T11:22:28.645Z,99372.22
2022-08-05T11:26:04.215Z,99383.16
2022-08-05T11:29:18.005Z,99380.75
2022-08-05T11:32:44.781Z,99372.28
2022-08-05T11:36:10.297Z,99377.41
2022-08-05T11:39:00.332Z,99377.59
2022-08-05T11:42:11.003Z,99382.69
2022-08-05T11:44:56.055Z,99387.22
2022-08-05T11:47:49.557Z,99388.47
2022-08-05T12:05:08.154Z,99403.69
2022-08-05T12:08:09.628Z,99409.47
2022-08-05T12:11:10.355Z,99413.59
2022-08-05T12:14:10.346Z,99416.16
2022-08-05T12:16:49.370Z,99421.94
2022-08-05T12:20:26.159Z,99430.41
2022-08-05T12:22:14.140Z,99429.94
2022-08-05T12:25:08.244Z,99440.00
2022-08-05T12:27:53.413Z,99448.03
2022-08-05T12:30:46.159Z,99450.75
2022-08-05T12:33:36.322Z,99448.16
2022-08-05T12:36:29.518Z,99459.56
2022-08-05T12:42:58.777Z,99468.34
2022-08-05T12:48:50.410Z,99470.22
2022-08-05T12:54:55.583Z,99482.69
2022-08-05T13:02:00.103Z,99489.22
2022-08-05T13:04:27.628Z,99481.44
2022-08-05T13:10:32.812Z,99490.34
2022-08-05T13:14:05.103Z,99485.22
2022-08-05T13:16:32.790Z,99488.91
2022-08-05T13:19:13.253Z,99481.53
2022-08-05T13:21:55.918Z,99476.38
2022-08-05T13:24:51.094Z,99480.53
2022-08-05T13:34:21.275Z,99486.00
2022-08-05T13:37:07.344Z,99483.09
2022-08-05T13:40:16.401Z,99490.88
2022-08-05T13:43:22.362Z,99485.06
2022-08-05T13:46:03.015Z,99486.66
2022-08-05T13:48:58.519Z,99483.25
2022-08-05T13:51:58.189Z,99474.78
2022-08-05T13:57:50.871Z,99474.78
2022-08-05T14:00:51.881Z,99481.66
2022-08-05T14:03:47.468Z,99485.19
2022-08-05T14:10:01.879Z,99476.50
2022-08-05T14:12:54.583Z,99477.63
2022-08-05T14:16:07.597Z,99478.25
2022-08-05T14:19:16.171Z,99476.97
2022-08-05T14:22:08.877Z,99468.63
2022-08-05T14:24:54.748Z,99474.84
2022-08-05T14:27:24.908Z,99475.16
2022-08-05T14:30:05.679Z,99474.94
2022-08-05T14:33:16.320Z,99465.50
2022-08-05T14:36:48.640Z,99464.97
2022-08-05T14:39:30.794Z,99458.53
2022-08-05T14:42:36.910Z,99463.97
2022-08-05T14:45:35.174Z,99461.56
2022-08-05T14:48:33.324Z,99456.91
2022-08-05T14:51:11.296Z,99462.47
2022-08-05T14:54:27.800Z,99453.94
2022-08-05T14:57:33.920Z,99468.16
2022-08-05T15:00:33.122Z,99462.53
2022-08-05T15:08:12.435Z,99478.66
2022-08-05T15:13:46.288Z,99478.47
2022-08-05T15:20:43.384Z,99484.91
2022-08-05T15:27:43.078Z,99480.38
2022-08-05T15:30:22.500Z,99481.03
2022-08-05T15:33:05.453Z,99487.91
2022-08-05T15:36:16.682Z,99477.34
2022-08-05T15:41:02.955Z,99479.38
2022-08-05T15:42:53.964Z,99482.19
2022-08-05T15:45:41.018Z,99465.50
2022-08-05T15:48:34.942Z,99469.94
2022-08-05T15:51:19.370Z,99464.28
2022-08-05T15:54:58.110Z,99461.88
2022-08-05T15:57:49.764Z,99478.69
2022-08-05T16:01:16.173Z,99480.31
2022-08-05T16:04:10.553Z,99472.16
2022-08-05T16:06:42.017Z,99466.72
2022-08-05T16:09:14.654Z,99480.31
2022-08-05T16:12:12.638Z,99473.03
2022-08-05T16:14:43.680Z,99477.06
2022-08-05T16:17:15.169Z,99487.63
2022-08-05T16:20:04.368Z,99469.72
2022-08-05T16:22:37.023Z,99469.44
2022-08-05T16:25:11.252Z,99463.16
2022-08-05T16:28:00.413Z,99463.78
2022-08-05T16:30:36.311Z,99476.56
2022-08-05T16:33:10.619Z,99461.69
2022-08-05T16:35:43.023Z,99455.75
2022-08-05T16:38:24.141Z,99460.97
2022-08-05T16:42:12.187Z,99461.28
2022-08-05T16:43:56.102Z,99466.50
2022-08-05T16:46:27.793Z,99472.53
2022-08-05T16:49:01.121Z,99480.19
2022-08-05T16:52:17.293Z,99473.72
2022-08-05T16:55:24.457Z,99478.16
2022-08-05T16:59:07.959Z,99484.44
2022-08-05T17:05:14.055Z,99474.50
2022-08-05T17:32:59.701Z,99472.22
2022-08-05T17:46:45.499Z,99490.28
2022-08-05T17:49:24.168Z,99487.06
2022-08-05T17:51:57.343Z,99493.09
2022-08-05T17:54:27.972Z,99488.25
2022-08-05T17:56:59.390Z,99492.06
2022-08-05T17:59:30.914Z,99497.50
2022-08-05T18:02:04.587Z,99499.38
2022-08-05T18:04:51.191Z,99495.59
2022-08-05T18:07:24.990Z,99494.28
2022-08-05T18:10:09.990Z,99486.22
2022-08-05T18:12:45.201Z,99488.41
2022-08-05T18:15:18.581Z,99483.34
2022-08-05T18:18:00.631Z,99491.84
2022-08-05T18:20:34.809Z,99485.97
2022-08-05T18:23:09.182Z,99493.31
2022-08-05T18:25:45.081Z,99489.28
2022-08-05T18:28:22.092Z,99485.47
2022-08-05T18:31:02.389Z,99482.22
2022-08-05T18:33:46.853Z,99483.63
2022-08-05T18:36:19.558Z,99483.91
2022-08-05T18:38:57.382Z,99482.84
2022-08-05T18:41:57.941Z,99472.78
2022-08-05T18:44:25.834Z,99476.28
2022-08-05T18:47:07.263Z,99476.28
2022-08-05T18:49:58.152Z,99468.97
2022-08-05T18:52:38.327Z,99461.66
2022-08-05T18:55:10.869Z,99457.00
2022-08-05T18:57:49.870Z,99457.00
2022-08-05T19:00:29.080Z,99448.09
2022-08-05T19:03:04.142Z,99459.72
2022-08-05T19:06:11.238Z,99454.31
2022-08-05T19:08:30.482Z,99460.53
2022-08-05T19:11:05.216Z,99457.81
2022-08-05T19:13:38.808Z,99462.16
2022-08-05T19:16:22.026Z,99457.53
2022-08-05T19:18:58.869Z,99458.94
2022-08-05T19:21:34.364Z,99464.34
2022-08-05T19:24:13.047Z,99459.50
2022-08-05T19:26:55.391Z,99453.88
2022-08-05T19:29:36.006Z,99448.75
2022-08-05T19:32:11.399Z,99459.88
2022-08-05T19:34:55.115Z,99460.47
2022-08-05T19:37:47.212Z,99451.81
2022-08-05T19:40:24.331Z,99444.00
2022-08-05T19:43:04.431Z,99447.22
2022-08-05T19:45:37.798Z,99449.09
2022-08-05T19:48:25.436Z,99459.44
2022-08-05T19:50:56.639Z,99454.84
2022-08-05T19:54:04.306Z,99458.13
2022-08-05T19:56:29.897Z,99457.09
2022-08-05T19:59:53.811Z,99453.78
2022-08-05T20:02:00.708Z,99457.31
2022-08-05T20:04:33.623Z,99457.63
2022-08-05T20:07:04.690Z,99453.88
2022-08-05T20:09:55.109Z,99460.91
2022-08-05T20:12:28.314Z,99469.34
2022-08-05T20:14:59.611Z,99460.97
2022-08-05T20:17:30.828Z,99464.28
2022-08-05T20:20:11.359Z,99466.97
2022-08-05T20:22:42.123Z,99466.19
2022-08-05T20:25:17.460Z,99475.09
2022-08-05T20:27:48.282Z,99466.19
2022-08-05T20:30:20.569Z,99474.59
2022-08-05T20:32:57.582Z,99480.81
2022-08-05T20:35:28.192Z,99483.03
2022-08-05T20:38:05.858Z,99481.66
2022-08-05T20:40:38.933Z,99484.66
2022-08-05T20:43:14.306Z,99497.09
2022-08-05T20:45:56.675Z,99509.84
2022-08-05T20:48:28.355Z,99510.41
2022-08-05T20:50:59.007Z,99501.75
2022-08-05T20:53:41.000Z,99501.75
2022-08-05T20:56:11.598Z,99506.66
2022-08-05T20:58:42.202Z,99494.41
2022-08-05T21:01:13.766Z,99495.22
2022-08-05T21:03:48.126Z,99487.94
2022-08-05T21:06:28.555Z,99502.28
2022-08-05T21:09:00.490Z,99515.88
2022-08-05T21:12:06.895Z,99507.50
2022-08-05T21:14:21.767Z,99515.34
2022-08-05T21:16:56.961Z,99511.84
2022-08-05T21:19:27.047Z,99515.63
2022-08-05T21:21:58.462Z,99526.75
2022-08-05T21:24:28.767Z,99530.06
2022-08-05T21:27:00.287Z,99529.47
2022-08-05T21:29:32.554Z,99534.91
2022-08-05T21:32:11.399Z,99537.09
2022-08-05T21:34:55.986Z,99537.91
2022-08-05T21:37:41.382Z,99543.34
2022-08-05T21:40:14.115Z,99546.34
2022-08-05T21:42:45.618Z,99550.63
2022-08-05T21:45:24.612Z,99556.34
2022-08-05T21:48:08.304Z,99544.94
2022-08-05T21:50:38.887Z,99551.16
2022-08-05T21:53:16.683Z,99549.78
2022-08-05T21:56:05.781Z,99538.16
2022-08-05T21:58:42.249Z,99538.16
2022-08-05T22:01:23.848Z,99541.38
2022-08-05T22:03:55.457Z,99548.69
2022-08-05T22:06:35.373Z,99550.59
2022-08-05T22:09:13.928Z,99528.38
2022-08-05T22:11:46.926Z,99522.19
2022-08-05T22:14:35.594Z,99526.19
2022-08-05T22:17:08.570Z,99520.50
2022-08-05T22:20:01.522Z,99529.97
2022-08-05T22:22:29.854Z,99532.34
2022-08-05T22:25:24.059Z,99539.16
2022-08-05T22:28:12.105Z,99532.09
2022-08-05T22:30:56.792Z,99532.31
2022-08-05T22:33:57.228Z,99519.59
2022-08-05T22:36:25.024Z,99517.97
2022-08-05T22:38:55.452Z,99515.78
2022-08-05T22:42:11.474Z,99515.19
2022-08-05T22:44:19.430Z,99519.00
2022-08-05T22:46:53.026Z,99521.41
2022-08-05T22:50:19.303Z,99518.13
2022-08-05T22:52:30.298Z,99522.97
2022-08-05T22:55:19.399Z,99517.34
2022-08-05T22:57:55.397Z,99525.91
2022-08-05T23:00:26.617Z,99528.34
2022-08-05T23:03:00.636Z,99526.44
2022-08-05T23:05:35.883Z,99537.00
2022-08-05T23:08:07.491Z,99547.25
2022-08-05T23:10:44.547Z,99543.16
2022-08-05T23:13:14.775Z,99533.91
2022-08-05T23:15:44.913Z,99531.72
2022-08-05T23:18:20.675Z,99513.75
2022-08-05T23:20:53.175Z,99516.69
2022-08-05T23:23:24.361Z,99523.44
2022-08-05T23:26:00.989Z,99506.06
2022-08-05T23:28:32.540Z,99500.56
2022-08-05T23:31:17.439Z,99503.19
2022-08-05T23:34:04.760Z,99499.91
2022-08-05T23:36:40.149Z,99499.25
2022-08-05T23:39:23.618Z,99507.31
2022-08-05T23:42:08.678Z,99514.88
2022-08-05T23:44:45.553Z,99521.84
2022-08-05T23:47:25.372Z,99514.22
2022-08-05T23:49:56.467Z,99515.44
2022-08-05T23:52:37.644Z,99516.69
2022-08-05T23:55:20.951Z,99522.31
2022-08-05T23:57:52.879Z,99514.97
